首页
METAR-TAF:

METAR-TAF

机场 :

布里斯托機場

布里斯托尔, 英格兰

纬度: 51-23N, 经度: 002-43W, 海拔: 189米

当前天气观测

该预报发布于30分钟前的19:50 UTC
风速15节,风向
温度 8°C
湿度 87%
气压 990 hPa
能见度10公里或以上
少量云层高于1100英尺

METAR: EGGD 221950Z AUTO 10015KT 9999 FEW011 08/06 Q0990

时间: 20:20 (20:20 UTC)

预报

该预报发布于3小时和24分钟前的16:56 UTC
预报有效从22日的 18点(UTC)到 23日的 18点(UTC)
风速10节,风向
能见度10公里或以上
散云层高于700英尺
多云层高于3500英尺
几率 30% :
短暂存在
从 22日的 18点(UTC)到 22日的 23点(UTC)
能見度: 7000
多云层高于700英尺
成为
从 22日的 23点(UTC)到 23日的 01点(UTC)
能見度: 8000
多云层高于700英尺
小雨
短暂存在
从 22日的 23点(UTC)到 23日的 18点(UTC)
能見度: 3000
阴天层高于300英尺
雨, 毛毛雨, 轻雾
几率 30% :
短暂存在
从 23日的 02点(UTC)到 23日的 06点(UTC)
多云层高于100英尺
几率 40% :
短暂存在
从 23日的 06点(UTC)到 23日的 18点(UTC)
能見度: 0600
多云层高于100英尺
成为
从 23日的 10点(UTC)到 23日的 13点(UTC)
风速6节,风向东北

TAF: EGGD 221656Z 2218/2318 10010KT 9999 SCT007 BKN035 PROB30 TEMPO 2218/2223 7000 RA BKN007 BECMG 2223/2301 8000 -RA BKN007 TEMPO 2223/2318 3000 RADZ BR OVC003 PROB30 TEMPO 2302/2306 BKN001 PROB40 TEMPO 2306/2318 0600 FG BKN001 BECMG 2310/2313 04006KT

超过4000个机场的气象观测和天气预报(METAR&TAF报告)。

可查询的气象台以黄色和红色小点在地图上表示。

将鼠标移到小点上方,可查看气象台名称。

然后点击查看天气观测和预报。

如需切换地图:点击带黑十字的绿色按钮放大地图;点击带横线的绿色按钮缩小地图;或者点击绿色箭头查看邻近地区的地图。


METAR-TAF: